To NAV CANADA Home Page Login to a new session Search on AWWS site Disclaimer Vers la page française équivalente Tips FAQ What's new on the site To the Forecasts and Observations / NOTAM section To "File a Flight Plan" website Publications and other links Update of the User's profile FIC Telephone Numbers My Weather Data Folder Route Weather Data Regional Weather Data Local Weather Data To the Forecasts and Observations / NOTAM section
Request Generated 11/13/2018 at 18:55:24 UTC . Weather information available at that time is displayed.

METAR/TAF

CHAPLEAU/ON    

METAR CYLD 131800Z 29008G15KT 260V330 15SM -SN DRSN BKN034 M13/M20 A3014 RMK SC7 SLP250=
METAR CYLD 131700Z 29006KT 260V330 15SM -SN DRSN BKN026 M12/M19 A3015 RMK SC7 SLP253=
METAR CYLD 131600Z 29008KT 240V350 15SM -SN OVC035 M13/M16 A3015 RMK SC8 SLP253=

TAF AMD CYLD 131512Z 1315/1401 VRB03KT P6SM -SN OVC030 TEMPO
1315/1318 5SM -SN OVC020
BECMG 1316/1318 30010KT
RMK NXT FCST BY 132000Z=
Your time UTC time
Weather data provided by Environment Canada and NAV CANADA